Time;durP1;ratioP1;P1;durP2;ratioP2;P2;SDS_P1;SDS_P2;PMS_P1;PMS_P2;Temp;Humidity;BMP_temperature;BMP_pressure;BME280_temperature;BME280_humidity;BME280_pressure;Samples;Min_cycle;Max_cycle;Signal;HPM_P1;HPM_P2
2022/08/12 00:44:44;;;;;;;5.20;4.20;;;;;;;12.74;84.54;97596.57;110312;1248;67664;-71
2022/08/12 00:47:18;;;;;;;5.80;4.60;;;;;;;12.74;86.19;97597.13;110312;1248;58872;-70
2022/08/12 00:49:55;;;;;;;4.00;3.60;;;;;;;12.71;84.54;97595.91;110274;1248;58862;-70
2022/08/12 00:52:25;;;;;;;4.90;4.30;;;;;;;12.70;84.32;97597.98;110151;1247;70616;-70
2022/08/12 00:54:58;;;;;;;4.60;4.10;;;;;;;12.68;85.52;97600.96;110349;1248;69431;-69
2022/08/12 00:57:35;;;;;;;5.70;4.80;;;;;;;12.66;87.65;97606.51;110278;1247;68677;-70
2022/08/12 01:00:12;;;;;;;5.10;4.60;;;;;;;12.61;85.68;97600.45;110073;1248;58942;-69
2022/08/12 01:02:46;;;;;;;5.40;4.80;;;;;;;12.57;87.21;97604.42;110168;1247;59013;-69
2022/08/12 01:13:49;;;;;;;5.80;4.70;;;;;;;12.38;88.98;97602.95;110169;1247;58875;-69
2022/08/12 01:16:23;;;;;;;4.80;4.40;;;;;;;12.34;89.49;97599.91;110277;1247;58802;-70
2022/08/12 01:18:57;;;;;;;5.20;4.60;;;;;;;12.29;88.31;97599.73;110281;1247;69918;-70
2022/08/12 01:21:27;;;;;;;5.30;4.50;;;;;;;12.26;88.76;97598.96;110278;1247;69187;-71
2022/08/12 01:24:42;;;;;;;4.00;3.60;;;;;;;12.22;88.41;97596.42;110185;1247;68675;-71
2022/08/12 01:27:14;;;;;;;5.40;4.40;;;;;;;12.18;86.98;97592.52;110208;1247;58947;-70
2022/08/12 01:29:47;;;;;;;4.90;4.40;;;;;;;12.16;87.49;97588.52;110153;1248;58884;-70
2022/08/12 01:32:22;;;;;;;5.40;4.90;;;;;;;12.15;88.86;97588.59;110264;1247;70678;-71
2022/08/12 01:35:12;;;;;;;5.60;4.80;;;;;;;12.15;90.29;97587.90;110283;1247;69383;-70
2022/08/12 01:37:45;;;;;;;5.50;4.50;;;;;;;12.13;89.66;97585.40;110205;1247;68736;-71
2022/08/12 01:40:16;;;;;;;4.90;4.10;;;;;;;12.10;89.14;97589.81;110270;1247;58996;-70
2022/08/12 01:43:08;;;;;;;4.80;4.30;;;;;;;12.06;89.55;97584.89;110153;1247;58890;-72
2022/08/12 01:45:50;;;;;;;4.90;4.20;;;;;;;12.01;88.61;97583.52;110144;1247;70695;-70
2022/08/12 01:48:33;;;;;;;5.60;4.90;;;;;;;11.97;88.73;97580.02;110243;1247;69410;-72
2022/08/12 01:51:38;;;;;;;5.70;4.50;;;;;;;11.92;90.42;97578.94;110766;1247;69593;-71
2022/08/12 01:54:28;;;;;;;5.30;4.80;;;;;;;11.87;90.99;97574.33;110197;1248;59014;-72
2022/08/12 01:57:06;;;;;;;6.40;5.00;;;;;;;11.83;91.41;97576.88;110201;1247;58938;-72
2022/08/12 02:00:00;;;;;;;4.70;4.20;;;;;;;11.81;91.04;97582.27;110227;1247;71043;-72
2022/08/12 02:02:47;;;;;;;4.90;4.40;;;;;;;11.76;89.33;97580.88;110217;1247;69629;-71
2022/08/12 02:12:08;;;;;;;5.00;4.50;;;;;;;11.68;90.58;97579.19;110232;1247;58944;-70
2022/08/12 02:14:56;;;;;;;5.40;4.70;;;;;;;11.64;91.53;97576.83;110201;1247;70567;-70
2022/08/12 02:17:55;;;;;;;5.20;4.10;;;;;;;11.61;89.43;97576.55;110250;1247;67470;-71
2022/08/12 02:20:37;;;;;;;6.40;4.50;;;;;;;11.59;90.12;97575.47;110174;1248;69290;-71
2022/08/12 02:23:26;;;;;;;6.00;5.40;;;;;;;11.57;92.31;97570.25;110166;1247;58907;-71
2022/08/12 02:26:04;;;;;;;6.10;5.50;;;;;;;11.53;90.53;97568.24;110192;1247;59187;-70
2022/08/12 02:28:36;;;;;;;7.00;5.00;;;;;;;11.52;91.48;97566.81;110111;1247;69970;-70
2022/08/12 02:31:10;;;;;;;5.90;5.30;;;;;;;11.48;92.36;97565.65;110025;1250;68520;-70
2022/08/12 02:33:41;;;;;;;6.50;4.60;;;;;;;11.45;92.23;97568.14;110101;1247;69555;-70
2022/08/12 02:36:11;;;;;;;6.60;5.00;;;;;;;11.43;89.70;97570.08;110093;1247;58901;-70
2022/08/12 02:38:42;;;;;;;6.10;5.50;;;;;;;11.40;87.37;97571.14;110191;1247;58819;-71
2022/08/12 02:41:18;;;;;;;6.20;5.50;;;;;;;11.39;87.61;97576.85;110256;1247;69763;-70
2022/08/12 02:43:58;;;;;;;5.60;4.30;;;;;;;11.35;86.83;97571.69;110273;1247;69517;-71
2022/08/12 02:46:31;;;;;;;5.20;4.40;;;;;;;11.31;87.12;97570.90;110242;1247;68865;-69
2022/08/12 02:49:43;;;;;;;6.10;5.20;;;;;;;11.30;90.77;97570.11;110225;1247;58903;-70
2022/08/12 02:52:16;;;;;;;5.90;4.30;;;;;;;11.27;92.40;97570.00;109376;1257;58846;-70
2022/08/12 02:54:52;;;;;;;5.40;4.90;;;;;;;11.24;91.95;97569.02;110038;1248;69975;-70
2022/08/12 02:57:23;;;;;;;6.00;5.10;;;;;;;11.20;91.66;97568.23;110276;1247;69395;-72
2022/08/12 02:59:54;;;;;;;6.70;6.00;;;;;;;11.18;92.92;97565.93;110245;1247;68584;-71
2022/08/12 03:02:26;;;;;;;;;;;;;;;11.17;93.37;97566.36;110684;1247;57963;-71
2022/08/12 03:04:57;;;;;;;5.50;4.20;;;;;;;11.15;90.90;97567.75;110553;1247;58948;-70
2022/08/12 03:07:26;;;;;;;5.50;4.80;;;;;;;11.15;89.60;97567.23;110232;1247;70770;-71
2022/08/12 03:10:18;;;;;;;5.40;4.90;;;;;;;11.14;89.58;97568.35;110235;1247;69476;-71
2022/08/12 03:13:07;;;;;;;5.60;4.50;;;;;;;11.10;90.55;97565.52;110146;1247;69595;-72
2022/08/12 03:15:39;;;;;;;5.30;4.80;;;;;;;11.06;91.73;97566.27;109910;1249;58943;-73
2022/08/12 03:18:08;;;;;;;;;;;;;;;11.05;92.51;97561.98;110270;1247;58885;-71
2022/08/12 03:21:00;;;;;;;5.60;5.10;;;;;;;11.04;94.01;97559.62;110247;1247;69768;-72
2022/08/12 03:23:30;;;;;;;5.80;5.20;;;;;;;11.05;93.74;97561.50;110202;1248;68661;-71
2022/08/12 03:26:01;;;;;;;7.00;5.80;;;;;;;11.06;93.32;97563.53;110130;1247;68455;-68
2022/08/12 03:28:55;;;;;;;6.40;5.60;;;;;;;11.08;94.25;97562.30;110167;1248;58893;-72
2022/08/12 03:31:31;;;;;;;6.40;5.60;;;;;;;11.10;94.81;97558.88;110176;1248;58866;-72
2022/08/12 03:34:07;;;;;;;7.80;6.40;;;;;;;11.09;93.93;97554.71;110021;1248;69032;-71
2022/08/12 03:36:40;;;;;;;6.60;6.00;;;;;;;11.06;92.68;97556.54;110287;1247;69489;-69
2022/08/12 03:41:56;;;;;;;6.10;5.50;;;;;;;10.96;92.51;97553.42;110233;1247;58886;-73
2022/08/12 04:01:27;;;;;;;5.80;5.20;;;;;;;11.09;90.01;97578.61;109893;1248;69967;-71
2022/08/12 04:04:00;;;;;;;4.50;3.70;;;;;;;11.13;88.50;97579.02;109958;1250;68814;-70
2022/08/12 04:06:30;;;;;;;6.20;4.40;;;;;;;11.17;88.19;97574.73;109977;1248;69985;-72
2022/08/12 04:09:05;;;;;;;8.20;6.00;;;;;;;11.24;89.82;97574.39;110116;1248;58894;-72
2022/08/12 04:14:33;;;;;;;4.90;4.40;;;;;;;11.57;91.02;97583.14;110123;1251;71180;-70
2022/08/12 04:17:02;;;;;;;5.90;4.30;;;;;;;11.83;90.38;97587.38;109853;1251;69363;-72
2022/08/12 04:19:32;;;;;;;5.50;5.00;;;;;;;12.15;90.21;97587.91;109901;1251;68699;-71
2022/08/12 04:22:01;;;;;;;7.30;5.30;;;;;;;12.48;89.90;97593.23;109798;1249;58966;-71
2022/08/12 04:24:33;;;;;;;5.20;4.70;;;;;;;12.68;88.28;97593.58;110028;1250;58902;-71
2022/08/12 04:27:07;;;;;;;5.00;4.50;;;;;;;12.73;87.04;97596.10;109852;1250;70782;-71
2022/08/12 04:29:37;;;;;;;4.80;3.70;;;;;;;12.75;86.79;97590.07;110050;1250;69390;-71
2022/08/12 04:32:27;;;;;;;4.50;4.10;;;;;;;12.83;87.24;97581.88;110029;1248;69446;-71
2022/08/12 04:34:57;;;;;;;;;;;;;;;12.92;87.02;97582.39;109812;1251;58950;-70
2022/08/12 04:37:26;;;;;;;3.80;3.30;;;;;;;13.09;86.95;97581.05;110024;1250;58875;-71
2022/08/12 04:40:16;;;;;;;5.40;4.90;;;;;;;13.28;86.19;97581.85;110155;1247;71362;-69
2022/08/12 04:42:57;;;;;;;5.00;4.50;;;;;;;13.39;85.90;97583.91;109927;1250;68942;-72
2022/08/12 04:45:27;;;;;;;6.00;4.80;;;;;;;13.53;85.24;97591.02;109862;1250;67903;-71
2022/08/12 04:47:56;;;;;;;4.50;4.10;;;;;;;13.74;84.49;97592.10;109912;1250;58916;-69
2022/08/12 04:50:27;;;;;;;6.40;5.20;;;;;;;14.00;83.78;97593.23;109686;1250;58891;-71
2022/08/12 04:53:07;;;;;;;5.70;5.10;;;;;;;14.32;83.93;97594.42;108941;1248;1415110;-71
2022/08/12 04:55:37;;;;;;;5.10;4.50;;;;;;;14.56;80.84;97595.70;110147;1247;69374;-69
2022/08/12 04:58:09;;;;;;;4.50;3.80;;;;;;;14.90;80.07;97592.19;110152;1247;69263;-70
2022/08/12 05:00:38;;;;;;;5.30;4.80;;;;;;;15.26;79.47;97590.63;110241;1247;59166;-71
2022/08/12 05:03:07;;;;;;;;;;;;;;;15.58;77.96;97588.63;110162;1247;58877;-71
2022/08/12 05:05:39;;;;;;;5.10;4.30;;;;;;;15.84;75.52;97587.33;109874;1250;69546;-72
2022/08/12 05:08:17;;;;;;;6.10;4.60;;;;;;;16.16;74.65;97584.03;110044;1248;68556;-69
2022/08/12 05:10:47;;;;;;;4.20;3.80;;;;;;;16.55;74.75;97584.27;110189;1247;70112;-71
2022/08/12 05:13:19;;;;;;;4.20;3.70;;;;;;;16.95;73.99;97584.54;110129;1248;58895;-71
2022/08/12 05:15:48;;;;;;;5.70;4.00;;;;;;;17.28;70.39;97582.89;110242;1247;58893;-71
2022/08/12 05:18:38;;;;;;;6.20;5.20;;;;;;;17.57;69.97;97576.41;110030;1247;70870;-71
2022/08/12 05:21:08;;;;;;;5.90;4.70;;;;;;;17.76;68.78;97575.91;110435;1247;71167;-71
2022/08/12 05:23:38;;;;;;;5.00;4.40;;;;;;;17.92;68.15;97577.38;110028;1247;69396;-70
2022/08/12 05:26:08;;;;;;;3.80;3.00;;;;;;;18.07;67.03;97579.52;110184;1247;58909;-71
2022/08/12 05:28:37;;;;;;;4.30;3.90;;;;;;;18.44;66.87;97585.66;110007;1247;58922;-71
2022/08/12 05:31:06;;;;;;;9.00;4.30;;;;;;;18.79;66.06;97587.38;110137;1247;71439;-71
2022/08/12 05:33:39;;;;;;;3.80;3.40;;;;;;;19.16;66.01;97587.34;109940;1248;68797;-71
2022/08/12 05:36:12;;;;;;;6.20;4.60;;;;;;;19.63;66.50;97582.36;110140;1247;69459;-71
2022/08/12 05:38:55;;;;;;;4.00;3.60;;;;;;;20.05;62.49;97574.30;110211;1247;58837;-71
2022/08/12 05:41:30;;;;;;;4.30;3.70;;;;;;;20.44;61.81;97570.93;110005;1248;58944;-71
2022/08/12 05:44:02;;;;;;;4.00;3.40;;;;;;;20.76;61.16;97568.80;109988;1248;70165;-71
2022/08/12 05:46:31;;;;;;;3.80;3.40;;;;;;;20.94;56.91;97562.70;110194;1248;69433;-71
2022/08/12 05:49:01;;;;;;;4.00;3.20;;;;;;;21.02;57.93;97564.47;109976;1247;67675;-72
2022/08/12 05:51:33;;;;;;;4.00;3.60;;;;;;;21.02;56.05;97565.89;110074;1248;58958;-71
2022/08/12 05:54:10;;;;;;;4.20;3.80;;;;;;;21.11;55.68;97565.42;110113;1247;58861;-71
2022/08/12 05:56:40;;;;;;;3.50;2.80;;;;;;;21.27;56.07;97563.45;110174;1247;70555;-71
2022/08/12 05:59:10;;;;;;;;;;;;;;;21.56;55.09;97561.92;110257;1247;69435;-71
2022/08/12 06:01:41;;;;;;;4.00;3.40;;;;;;;21.74;53.39;97560.82;110242;1247;68680;-71
2022/08/12 06:04:30;;;;;;;4.90;3.90;;;;;;;21.75;54.02;97558.90;110239;1246;58940;-70
2022/08/12 06:07:00;;;;;;;5.20;3.90;;;;;;;21.86;54.67;97559.46;110262;1247;58884;-71
2022/08/12 06:09:49;;;;;;;3.40;3.10;;;;;;;21.90;54.37;97565.84;110205;1247;69859;-71
2022/08/12 06:12:22;;;;;;;4.40;3.40;;;;;;;22.40;54.59;97564.77;110235;1247;69491;-71
2022/08/12 06:14:50;;;;;;;4.90;4.30;;;;;;;22.73;53.26;97565.48;110266;1247;70277;-72
2022/08/12 06:17:19;;;;;;;4.80;3.30;;;;;;;22.95;52.55;97562.18;110164;1247;58888;-72
2022/08/12 06:19:48;;;;;;;3.40;3.10;;;;;;;22.95;50.32;97559.41;110173;1247;58848;-70
2022/08/12 06:22:38;;;;;;;3.60;3.10;;;;;;;22.82;49.43;97558.33;110290;1245;70317;-71
2022/08/12 06:25:08;;;;;;;3.30;3.00;;;;;;;22.66;49.03;97556.36;110288;1247;69863;-71
2022/08/12 06:27:47;;;;;;;3.90;3.10;;;;;;;22.88;49.85;97558.92;109904;1247;69543;-71
2022/08/12 06:30:35;;;;;;;3.20;2.90;;;;;;;23.01;48.75;97555.33;110176;1247;58851;-71
2022/08/12 06:33:07;;;;;;;4.40;3.20;;;;;;;22.58;48.33;97550.77;110191;1247;58964;-71
2022/08/12 06:35:52;;;;;;;3.40;3.10;;;;;;;22.53;49.29;97550.62;110330;1247;70532;-70
2022/08/12 06:38:27;;;;;;;5.30;3.70;;;;;;;22.76;49.30;97546.46;110203;1247;68872;-71
2022/08/12 06:43:49;;;;;;;4.10;3.40;;;;;;;23.13;48.99;97541.45;110226;1247;58920;-70
2022/08/12 06:46:38;;;;;;;3.60;3.30;;;;;;;23.19;48.05;97538.27;110237;1247;58941;-70
2022/08/12 06:49:11;;;;;;;3.90;3.50;;;;;;;23.20;47.76;97535.98;110471;1247;69174;-70
2022/08/12 06:51:40;;;;;;;3.40;3.00;;;;;;;22.61;47.72;97531.51;110170;1247;68776;-70
2022/08/12 06:54:24;;;;;;;4.00;3.50;;;;;;;22.63;48.35;97531.33;110256;1247;68496;-71
2022/08/12 06:57:00;;;;;;;3.50;3.20;;;;;;;22.81;47.39;97529.19;110133;1247;58882;-70
2022/08/12 06:59:49;;;;;;;3.60;3.30;;;;;;;22.47;48.23;97526.80;110236;1247;58883;-71
2022/08/12 07:02:19;;;;;;;3.90;3.50;;;;;;;22.59;48.22;97529.96;110167;1248;70543;-72
2022/08/12 07:04:48;;;;;;;4.00;3.40;;;;;;;22.62;47.65;97536.97;110268;1247;69446;-70
2022/08/12 07:07:17;;;;;;;4.20;3.60;;;;;;;22.48;47.33;97538.10;110353;1245;69209;-70
2022/08/12 07:09:46;;;;;;;6.70;6.10;;;;;;;22.43;47.62;97540.44;110151;1247;58906;-70
2022/08/12 07:12:35;;;;;;;4.50;3.80;;;;;;;22.83;47.37;97540.96;110229;1247;59212;-71
2022/08/12 07:15:05;;;;;;;4.80;3.60;;;;;;;23.00;47.05;97541.21;110240;1247;71141;-71
2022/08/12 07:17:36;;;;;;;;;;;;;;;22.99;47.62;97535.85;110208;1247;69255;-70
2022/08/12 07:20:08;;;;;;;3.80;3.50;;;;;;;23.55;45.44;97535.55;110207;1247;68624;-70
2022/08/12 07:22:59;;;;;;;3.40;2.80;;;;;;;23.99;45.34;97536.27;110169;1247;58879;-72
2022/08/12 07:25:30;;;;;;;4.00;3.30;;;;;;;24.17;43.80;97541.27;110227;1247;58837;-71
2022/08/12 07:28:17;;;;;;;3.80;3.20;;;;;;;24.48;43.05;97539.52;110240;1247;70686;-73
2022/08/12 07:30:48;;;;;;;3.80;3.00;;;;;;;24.74;42.98;97536.13;110580;1247;68288;-72
2022/08/12 07:33:21;;;;;;;3.40;3.10;;;;;;;24.51;42.50;97537.13;110251;1247;68697;-73
2022/08/12 07:35:52;;;;;;;3.90;3.30;;;;;;;24.46;42.33;97535.65;110266;1247;58885;-71
2022/08/12 07:38:32;;;;;;;3.20;2.90;;;;;;;24.37;42.63;97537.02;110279;1247;58966;-71
2022/08/12 07:41:11;;;;;;;6.00;3.60;;;;;;;25.13;42.98;97538.53;110268;1247;70145;-71
2022/08/12 07:43:46;;;;;;;3.50;2.90;;;;;;;25.77;42.63;97537.02;110187;1247;69429;-72
2022/08/12 07:46:20;;;;;;;3.40;3.10;;;;;;;26.43;41.97;97535.63;110296;1247;69418;-72
2022/08/12 07:48:52;;;;;;;3.20;2.90;;;;;;;26.95;41.14;97539.85;110220;1247;58967;-71
2022/08/12 07:51:23;;;;;;;3.40;2.80;;;;;;;27.42;39.64;97538.16;110206;1247;58887;-72
2022/08/12 07:53:56;;;;;;;3.80;2.90;;;;;;;27.65;39.39;97536.82;109866;1248;70530;-72
2022/08/12 07:56:30;;;;;;;5.60;3.30;;;;;;;27.91;38.79;97533.92;110135;1247;69743;-71
2022/08/12 07:58:59;;;;;;;6.10;3.30;;;;;;;28.05;38.82;97531.33;110124;1247;68624;-72
2022/08/12 08:01:31;;;;;;;2.90;2.60;;;;;;;28.28;38.20;97533.55;110129;1247;58948;-72
2022/08/12 08:06:49;;;;;;;6.20;2.90;;;;;;;28.16;38.45;97536.52;110302;1247;69911;-72
2022/08/12 08:09:20;;;;;;;3.60;2.70;;;;;;;28.42;38.53;97535.85;110353;1247;70026;-71
2022/08/12 08:14:47;;;;;;;2.70;2.40;;;;;;;28.77;36.62;97531.45;109909;1247;58964;-72
2022/08/12 08:17:17;;;;;;;3.90;2.60;;;;;;;28.66;36.27;97530.58;110069;1247;58852;-70
2022/08/12 08:19:51;;;;;;;4.60;3.10;;;;;;;28.54;37.16;97529.27;110201;1247;70780;-69
2022/08/12 08:22:37;;;;;;;3.30;2.90;;;;;;;28.40;37.80;97525.98;110172;1247;69970;-72
2022/08/12 08:25:12;;;;;;;3.60;3.20;;;;;;;28.16;38.67;97524.98;110199;1247;69545;-71
2022/08/12 08:28:04;;;;;;;2.70;2.50;;;;;;;28.41;37.55;97523.44;110251;1247;58945;-69
2022/08/12 08:30:36;;;;;;;3.30;2.30;;;;;;;28.56;37.75;97523.80;109982;1248;58891;-70
2022/08/12 08:33:08;;;;;;;2.90;2.70;;;;;;;28.67;35.98;97521.89;110238;1247;71278;-72
2022/08/12 08:35:56;;;;;;;3.90;3.00;;;;;;;28.70;35.88;97519.42;110332;1247;69893;-71
2022/08/12 08:38:25;;;;;;;3.10;2.40;;;;;;;29.02;36.56;97520.67;110214;1247;68649;-72
2022/08/12 08:44:10;;;;;;;;;;;;;;;30.17;35.34;97517.21;110166;1247;58870;-71
2022/08/12 08:46:42;;;;;;;3.60;3.30;;;;;;;29.61;34.20;97517.34;110214;1247;70527;-70
2022/08/12 08:49:11;;;;;;;3.10;2.60;;;;;;;29.64;35.11;97512.40;110350;1247;68482;-70
2022/08/12 08:51:41;;;;;;;2.70;2.00;;;;;;;29.82;33.44;97508.45;110038;1247;69290;-70
2022/08/12 08:54:11;;;;;;;2.40;2.20;;;;;;;29.92;33.39;97505.77;110094;1247;59263;-68
2022/08/12 08:56:48;;;;;;;2.70;2.40;;;;;;;30.31;34.03;97499.59;110067;1247;58916;-69
2022/08/12 08:59:18;;;;;;;1.90;1.60;;;;;;;30.64;33.85;97498.58;110138;1247;70312;-70
2022/08/12 09:01:47;;;;;;;2.10;1.90;;;;;;;31.10;32.54;97494.67;110219;1247;69197;-68
2022/08/12 09:04:19;;;;;;;2.20;1.90;;;;;;;31.21;31.42;97491.92;109743;1247;68687;-69
2022/08/12 09:07:07;;;;;;;2.30;2.00;;;;;;;31.51;31.40;97494.27;110135;1247;58903;-69
2022/08/12 09:09:56;;;;;;;2.30;2.00;;;;;;;31.79;30.49;97488.17;110325;1247;58889;-70
2022/08/12 09:15:24;;;;;;;1.80;1.70;;;;;;;32.12;30.46;97487.19;110231;1247;68548;-70
2022/08/12 09:18:06;;;;;;;2.10;1.90;;;;;;;32.39;30.08;97486.90;110216;1247;68613;-70
2022/08/12 09:20:38;;;;;;;2.90;2.10;;;;;;;32.32;30.27;97481.96;110221;1247;58916;-71
2022/08/12 09:23:09;;;;;;;2.70;2.30;;;;;;;32.25;30.10;97483.42;110288;1246;58891;-69
2022/08/12 09:26:01;;;;;;;2.00;1.80;;;;;;;32.10;29.71;97479.48;110204;1246;71444;-69
2022/08/12 09:28:33;;;;;;;3.70;2.00;;;;;;;32.17;30.39;97479.90;110194;1247;68629;-70
2022/08/12 09:31:04;;;;;;;1.90;1.70;;;;;;;32.65;29.20;97480.05;110154;1246;69289;-69
2022/08/12 09:33:53;;;;;;;2.20;1.70;;;;;;;33.08;29.03;97480.70;110244;1247;58942;-67
2022/08/12 09:36:42;;;;;;;2.10;1.70;;;;;;;33.18;28.32;97478.70;110118;1247;58856;-70
2022/08/12 09:39:29;;;;;;;1.90;1.70;;;;;;;33.30;28.60;97475.73;110227;1247;70093;-71
2022/08/12 09:45:24;;;;;;;3.30;2.30;;;;;;;32.99;28.31;97474.41;110349;1247;71098;-70
2022/08/12 09:48:15;;;;;;;2.50;1.90;;;;;;;33.30;27.97;97475.45;110305;1247;59485;-69
2022/08/12 09:50:51;;;;;;;2.20;1.90;;;;;;;32.95;28.11;97472.85;110092;1246;58854;-70
2022/08/12 09:53:24;;;;;;;2.00;1.80;;;;;;;33.13;28.32;97466.71;110161;1247;71188;-71
2022/08/12 09:56:11;;;;;;;1.80;1.60;;;;;;;33.10;27.81;97461.39;110308;1247;69987;-69
2022/08/12 09:58:59;;;;;;;1.90;1.50;;;;;;;33.23;27.59;97459.88;110254;1246;70026;-70
2022/08/12 10:01:29;;;;;;;2.40;1.50;;;;;;;33.66;27.36;97457.55;110245;1247;58903;-70
2022/08/12 10:04:18;;;;;;;2.20;1.80;;;;;;;33.79;27.23;97454.67;110240;1247;58881;-70
2022/08/12 10:06:47;;;;;;;2.30;1.80;;;;;;;33.39;27.31;97455.59;110315;1247;70602;-70
2022/08/12 10:09:23;;;;;;;2.30;1.60;;;;;;;34.03;26.82;97453.14;110174;1248;69847;-70
2022/08/12 10:15:36;;;;;;;1.70;1.50;;;;;;;33.92;27.53;97446.77;109829;1251;59353;-70
2022/08/12 10:18:24;;;;;;;2.40;1.90;;;;;;;33.88;27.69;97438.79;110178;1245;58941;-70
2022/08/12 10:20:53;;;;;;;2.50;2.00;;;;;;;33.81;27.37;97435.38;110114;1247;70797;-70
2022/08/12 10:23:23;;;;;;;2.40;2.00;;;;;;;33.97;26.54;97431.39;110345;1247;69319;-70
2022/08/12 10:32:22;;;;;;;4.40;1.70;;;;;;;34.43;26.52;97427.60;110256;1247;58841;-70
2022/08/12 10:35:13;;;;;;;1.70;1.60;;;;;;;34.74;26.80;97428.45;110228;1247;70511;-69
2022/08/12 10:37:44;;;;;;;2.10;1.70;;;;;;;34.58;26.43;97427.73;110358;1247;69252;-69
2022/08/12 10:43:39;;;;;;;1.70;1.60;;;;;;;34.40;26.16;97425.37;110174;1247;69517;-70
2022/08/12 10:43:41;;;;;;;1.90;1.60;;;;;;;34.45;25.68;97426.10;110310;1247;58870;-70
2022/08/12 10:46:24;;;;;;;1.60;1.50;;;;;;;34.72;24.88;97421.50;110224;1247;58860;-70
2022/08/12 10:49:00;;;;;;;1.90;1.70;;;;;;;34.22;23.23;97417.67;110253;1247;70602;-69
2022/08/12 10:51:50;;;;;;;1.80;1.50;;;;;;;33.51;23.69;97412.86;110087;1245;68876;-69
2022/08/12 10:54:41;;;;;;;2.20;1.50;;;;;;;34.13;24.70;97409.22;110079;1246;68761;-70
2022/08/12 10:57:10;;;;;;;3.80;2.00;;;;;;;34.19;23.74;97410.27;110315;1247;58934;-69
2022/08/12 10:59:58;;;;;;;2.30;1.80;;;;;;;33.97;25.00;97408.23;110223;1247;58935;-70
2022/08/12 11:02:51;;;;;;;2.10;1.70;;;;;;;34.40;25.09;97413.05;110211;1246;70526;-70
2022/08/12 11:05:40;;;;;;;1.60;1.40;;;;;;;34.70;24.93;97408.61;110257;1246;69192;-70
2022/08/12 11:08:29;;;;;;;1.70;1.60;;;;;;;34.76;23.82;97408.92;110200;1247;68537;-69
2022/08/12 11:11:10;;;;;;;2.30;1.80;;;;;;;34.86;23.12;97406.39;110081;1247;58957;-71
2022/08/12 11:13:47;;;;;;;3.50;2.00;;;;;;;34.52;23.42;97404.58;110057;1248;58967;-69
2022/08/12 11:16:16;;;;;;;2.20;1.60;;;;;;;34.37;23.36;97395.86;110133;1246;70766;-70
2022/08/12 11:18:50;;;;;;;1.80;1.60;;;;;;;33.68;25.89;97383.35;110045;1247;69383;-70
2022/08/12 11:21:23;;;;;;;1.70;1.30;;;;;;;34.34;24.85;97393.64;110182;1247;69995;-70
2022/08/12 11:24:11;;;;;;;1.40;1.10;;;;;;;34.85;24.00;97393.04;110177;1247;58841;-70
2022/08/12 11:27:02;;;;;;;2.40;2.20;;;;;;;34.66;22.69;97388.20;110237;1247;58895;-68
2022/08/12 11:29:38;;;;;;;1.50;1.30;;;;;;;35.21;23.13;97392.35;110058;1247;71187;-70
2022/08/12 11:32:27;;;;;;;1.60;1.40;;;;;;;34.93;23.22;97392.02;110189;1247;69793;-69
2022/08/12 11:34:56;;;;;;;1.80;1.70;;;;;;;35.40;22.73;97393.08;110043;1247;69330;-68
2022/08/12 11:37:26;;;;;;;3.00;1.80;;;;;;;34.18;22.30;97387.45;110104;1247;58992;-69
2022/08/12 11:39:56;;;;;;;1.60;1.50;;;;;;;34.04;22.47;97387.61;110095;1247;58833;-69
2022/08/12 11:42:34;;;;;;;3.50;1.80;;;;;;;34.05;22.66;97385.33;110221;1247;70853;-70
2022/08/12 11:45:13;;;;;;;1.80;1.60;;;;;;;34.22;22.71;97384.14;110181;1247;68415;-70
2022/08/12 11:47:45;;;;;;;2.00;1.80;;;;;;;34.90;23.62;97385.88;110216;1247;70049;-71
2022/08/12 11:50:13;;;;;;;1.80;1.60;;;;;;;35.09;23.43;97386.08;110212;1245;59085;-71
2022/08/12 11:52:48;;;;;;;2.10;1.90;;;;;;;34.39;22.93;97382.60;109998;1248;58881;-70
2022/08/12 11:55:26;;;;;;;1.90;1.70;;;;;;;34.75;22.38;97377.41;110115;1247;71200;-70
2022/08/12 11:57:57;;;;;;;2.40;1.90;;;;;;;34.90;22.91;97373.23;110228;1247;69176;-69
2022/08/12 12:00:45;;;;;;;2.40;2.00;;;;;;;34.93;24.40;97369.06;110211;1247;69262;-70
2022/08/12 12:03:34;;;;;;;1.90;1.70;;;;;;;35.19;24.48;97366.16;110054;1247;58935;-70
2022/08/12 12:06:14;;;;;;;2.50;1.80;;;;;;;35.24;24.39;97366.06;109718;1247;58857;-69
2022/08/12 12:08:45;;;;;;;2.30;1.90;;;;;;;34.92;24.76;97360.31;110128;1247;71309;-70
2022/08/12 12:11:21;;;;;;;2.70;2.40;;;;;;;34.86;23.91;97356.44;110242;1247;69780;-70
2022/08/12 12:13:50;;;;;;;2.50;2.20;;;;;;;34.71;24.07;97361.70;110180;1246;69902;-69
2022/08/12 12:16:37;;;;;;;1.80;1.60;;;;;;;34.51;24.59;97355.95;110025;1247;58911;-69
2022/08/12 12:19:07;;;;;;;2.90;1.90;;;;;;;34.75;24.11;97353.98;110048;1247;58831;-70
2022/08/12 12:21:38;;;;;;;1.60;1.50;;;;;;;34.87;24.13;97352.20;110126;1247;70394;-69
2022/08/12 12:24:17;;;;;;;3.30;2.20;;;;;;;34.93;24.67;97353.20;110055;1247;69904;-71
2022/08/12 12:26:51;;;;;;;2.70;1.90;;;;;;;34.96;24.49;97353.14;110052;1247;69276;-70
2022/08/12 12:29:30;;;;;;;2.20;1.90;;;;;;;34.93;24.29;97351.57;109716;1247;58904;-69
2022/08/12 12:32:19;;;;;;;2.40;1.90;;;;;;;34.64;23.97;97346.65;110181;1247;58854;-69
2022/08/12 12:34:58;;;;;;;2.60;1.90;;;;;;;34.15;24.82;97347.16;110212;1247;70438;-69
2022/08/12 12:37:57;;;;;;;2.10;1.90;;;;;;;33.96;25.38;97342.41;110195;1247;69968;-70
2022/08/12 12:40:42;;;;;;;2.10;1.90;;;;;;;33.66;26.03;97336.13;110196;1247;70204;-71
2022/08/12 12:43:13;;;;;;;2.60;1.90;;;;;;;33.10;26.07;97337.80;110189;1247;58903;-70
2022/08/12 12:45:43;;;;;;;2.20;1.90;;;;;;;33.14;26.90;97339.46;110214;1247;58957;-71
2022/08/12 12:48:16;;;;;;;3.20;2.50;;;;;;;33.05;26.51;97337.75;110191;1247;69773;-70
2022/08/12 12:51:14;;;;;;;2.60;2.20;;;;;;;33.05;25.02;97333.16;110204;1247;69807;-71
2022/08/12 12:53:38;;;;;;;2.60;1.80;;;;;;;32.57;25.45;97325.64;110189;1246;68710;-69
2022/08/12 12:56:27;;;;;;;2.80;1.90;;;;;;;32.68;26.76;97322.77;110090;1247;58947;-69
2022/08/12 12:59:04;;;;;;;3.40;2.00;;;;;;;32.88;26.21;97321.08;110062;1246;58888;-70
2022/08/12 13:01:36;;;;;;;3.30;2.10;;;;;;;32.89;25.99;97316.22;110109;1246;70534;-70
2022/08/12 13:04:10;;;;;;;2.30;2.00;;;;;;;33.00;26.20;97314.48;110099;1247;68658;-70
2022/08/12 13:06:41;;;;;;;2.40;2.10;;;;;;;32.74;26.34;97313.41;110160;1247;69764;-70
2022/08/12 13:09:12;;;;;;;3.50;2.40;;;;;;;32.59;27.77;97313.26;110202;1246;59307;-69
2022/08/12 13:11:42;;;;;;;3.50;2.30;;;;;;;32.64;27.95;97308.81;110074;1247;58893;-68
2022/08/12 13:14:12;;;;;;;3.30;2.70;;;;;;;32.72;26.95;97310.36;109922;1247;70785;-69
2022/08/12 13:17:01;;;;;;;2.80;2.10;;;;;;;32.66;26.93;97305.98;109989;1247;69192;-70
2022/08/12 13:19:35;;;;;;;2.40;1.90;;;;;;;32.74;26.74;97310.65;110057;1247;69536;-71
2022/08/12 13:22:16;;;;;;;3.00;2.30;;;;;;;32.46;26.21;97303.90;110056;1247;58957;-70
2022/08/12 13:24:53;;;;;;;3.50;2.90;;;;;;;32.28;26.22;97300.77;110200;1245;58843;-70
2022/08/12 13:27:33;;;;;;;3.50;2.90;;;;;;;31.81;27.21;97296.99;110045;1247;69981;-70
2022/08/12 13:30:08;;;;;;;3.20;2.60;;;;;;;31.77;28.83;97291.85;110099;1247;69760;-70
2022/08/12 13:32:41;;;;;;;2.40;2.10;;;;;;;31.67;29.06;97295.65;110229;1247;69224;-70
2022/08/12 13:35:15;;;;;;;3.30;3.00;;;;;;;31.88;29.01;97292.34;110239;1247;58944;-69
2022/08/12 13:38:01;;;;;;;2.90;2.30;;;;;;;31.88;29.15;97286.02;110076;1247;58868;-70
2022/08/12 13:40:34;;;;;;;3.50;2.50;;;;;;;31.96;29.27;97284.11;110176;1248;71156;-69
2022/08/12 13:43:05;;;;;;;3.10;2.50;;;;;;;31.88;28.86;97285.52;110113;1247;68882;-70
2022/08/12 13:45:34;;;;;;;2.90;2.60;;;;;;;31.80;28.60;97281.52;110087;1246;69888;-69
2022/08/12 13:48:05;;;;;;;3.00;2.70;;;;;;;31.45;28.93;97281.88;110089;1247;58965;-70
2022/08/12 13:50:38;;;;;;;3.20;2.90;;;;;;;31.08;29.51;97280.05;110163;1247;58868;-70
2022/08/12 13:53:15;;;;;;;3.70;2.80;;;;;;;30.77;29.92;97281.41;110299;1247;70966;-69
2022/08/12 13:55:54;;;;;;;3.20;2.50;;;;;;;30.40;30.85;97286.72;110115;1247;69183;-69
2022/08/12 13:58:29;;;;;;;2.80;2.40;;;;;;;30.20;31.22;97291.29;110133;1247;70044;-69
2022/08/12 14:01:06;;;;;;;3.40;2.60;;;;;;;30.08;30.94;97286.70;110115;1247;58970;-69